createdAt,value
2018-04-14T00:00:23.820Z,32.25
2018-04-14T00:00:57.851Z,34.25
2018-04-14T00:01:31.131Z,34.50
2018-04-14T00:02:04.405Z,35.72
2018-04-14T00:02:37.682Z,35.30
2018-04-14T00:03:10.936Z,40.03
2018-04-14T00:03:44.984Z,35.42
2018-04-14T00:04:18.248Z,39.47
2018-04-14T00:04:51.516Z,27.73
2018-04-14T00:05:25.799Z,29.12
2018-04-14T00:05:59.062Z,29.17
2018-04-14T00:06:32.338Z,32.22
2018-04-14T00:07:05.616Z,31.45
2018-04-14T00:07:38.895Z,30.95
2018-04-14T00:08:12.207Z,39.83
2018-04-14T00:08:46.248Z,38.72
2018-04-14T00:09:19.516Z,33.33
2018-04-14T00:09:53.563Z,30.30
2018-04-14T00:10:26.947Z,32.60
2018-04-14T00:11:00.237Z,34.55
2018-04-14T00:11:33.508Z,29.83
2018-04-14T00:12:06.788Z,31.60
2018-04-14T00:12:40.060Z,27.90
2018-04-14T00:13:13.332Z,26.65
2018-04-14T00:13:46.609Z,26.65
2018-04-14T00:14:19.901Z,30.10
2018-04-14T00:14:53.222Z,32.15
2018-04-14T00:15:27.280Z,33.53
2018-04-14T00:16:00.573Z,34.55
2018-04-14T00:16:33.844Z,35.30
2018-04-14T00:17:07.112Z,32.45
2018-04-14T00:17:40.380Z,30.20
2018-04-14T00:18:13.649Z,26.35
2018-04-14T00:18:46.934Z,28.23
2018-04-14T00:19:20.229Z,26.65
2018-04-14T00:19:54.265Z,27.75
2018-04-14T00:20:28.297Z,24.83
2018-04-14T00:21:01.580Z,25.73
2018-04-14T00:21:34.852Z,24.35
2018-04-14T00:22:08.128Z,26.02
2018-04-14T00:22:41.657Z,23.55
2018-04-14T00:23:14.924Z,28.67
2018-04-14T00:23:48.197Z,28.52
2018-04-14T00:24:21.502Z,24.45
2018-04-14T00:24:54.772Z,24.20
2018-04-14T00:25:28.045Z,25.00
2018-04-14T00:26:01.316Z,29.55
2018-04-14T00:26:34.589Z,23.50
2018-04-14T00:27:07.861Z,24.83
2018-04-14T00:27:41.142Z,28.35
2018-04-14T00:28:14.416Z,30.65
2018-04-14T00:28:47.688Z,30.60
2018-04-14T00:29:20.984Z,28.75
2018-04-14T00:29:54.256Z,30.05
2018-04-14T00:30:27.532Z,35.95
2018-04-14T00:31:01.568Z,27.90
2018-04-14T00:31:34.852Z,21.65
2018-04-14T00:32:08.134Z,21.62
2018-04-14T00:32:41.422Z,26.00
2018-04-14T00:33:14.705Z,25.55
2018-04-14T00:33:47.978Z,31.37
2018-04-14T00:34:21.265Z,33.97
2018-04-14T00:34:54.542Z,29.42
2018-04-14T00:35:27.836Z,32.05
2018-04-14T00:36:01.101Z,32.03
2018-04-14T00:36:34.384Z,32.88
2018-04-14T00:37:07.662Z,33.92
2018-04-14T00:37:41.695Z,39.60
2018-04-14T00:38:14.976Z,38.47
2018-04-14T00:38:48.252Z,37.15
2018-04-14T00:39:22.293Z,45.03
2018-04-14T00:39:55.577Z,41.53
2018-04-14T00:40:28.857Z,41.88
2018-04-14T00:41:02.188Z,41.85
2018-04-14T00:41:36.248Z,43.60
2018-04-14T00:42:09.524Z,43.58
2018-04-14T00:42:42.817Z,41.53
2018-04-14T00:43:16.091Z,34.78
2018-04-14T00:43:49.363Z,36.03
2018-04-14T00:44:22.652Z,33.88
2018-04-14T00:44:56.699Z,37.75
2018-04-14T00:45:29.972Z,37.95
2018-04-14T00:46:03.257Z,37.55
2018-04-14T00:46:36.700Z,34.70
2018-04-14T00:47:09.981Z,30.80
2018-04-14T00:47:43.276Z,29.70
2018-04-14T00:48:16.568Z,32.88
2018-04-14T00:48:50.629Z,34.97
2018-04-14T00:49:23.872Z,36.60
2018-04-14T00:49:57.157Z,35.28
2018-04-14T00:50:30.456Z,40.20
2018-04-14T00:51:03.717Z,27.33
2018-04-14T00:51:37.015Z,28.73
2018-04-14T00:52:10.322Z,28.12
2018-04-14T00:52:43.615Z,30.80
2018-04-14T00:53:28.717Z,33.58
2018-04-14T00:54:01.998Z,27.17
2018-04-14T00:54:35.270Z,31.40
2018-04-14T00:55:08.547Z,31.10
2018-04-14T00:55:41.836Z,39.80
2018-04-14T00:56:15.120Z,41.83
2018-04-14T00:56:48.393Z,39.75
2018-04-14T00:57:21.681Z,43.47
2018-04-14T00:57:54.949Z,37.92
2018-04-14T00:58:28.220Z,33.25
2018-04-14T00:59:01.499Z,35.22
2018-04-14T00:59:35.553Z,40.75
2018-04-14T01:00:08.836Z,51.53
2018-04-14T01:00:42.109Z,52.42
2018-04-14T01:01:15.392Z,44.03
2018-04-14T01:01:48.681Z,44.50
2018-04-14T01:02:21.981Z,48.40
2018-04-14T01:02:56.015Z,39.55
2018-04-14T01:03:29.295Z,47.45
2018-04-14T01:04:02.568Z,47.28
2018-04-14T01:04:35.841Z,46.83
2018-04-14T01:05:09.114Z,41.50
2018-04-14T01:05:43.143Z,35.92
2018-04-14T01:06:16.423Z,38.03
2018-04-14T01:06:49.701Z,39.65
2018-04-14T01:07:22.986Z,42.13
2018-04-14T01:07:56.265Z,41.50
2018-04-14T01:08:29.532Z,36.30
2018-04-14T01:09:02.803Z,37.42
2018-04-14T01:09:36.089Z,45.12
2018-04-14T01:10:09.356Z,41.90
2018-04-14T01:10:42.629Z,36.42
2018-04-14T01:11:15.940Z,35.97
2018-04-14T01:11:49.219Z,37.72
2018-04-14T01:12:22.497Z,43.97
2018-04-14T01:12:55.780Z,42.40
2018-04-14T01:13:29.071Z,37.30
2018-04-14T01:14:02.340Z,41.72
2018-04-14T01:14:36.103Z,43.17
2018-04-14T01:15:09.391Z,42.05
2018-04-14T01:15:42.664Z,42.38
2018-04-14T01:16:16.722Z,39.80
2018-04-14T01:16:49.994Z,38.97
2018-04-14T01:17:23.264Z,39.40
2018-04-14T01:17:56.552Z,40.28
2018-04-14T01:18:29.838Z,41.22
2018-04-14T01:19:03.092Z,36.72
2018-04-14T01:19:36.380Z,44.28
2018-04-14T01:20:09.661Z,39.10
2018-04-14T01:20:43.695Z,45.20
2018-04-14T01:21:16.961Z,42.13
2018-04-14T01:21:50.240Z,46.30
2018-04-14T01:22:23.510Z,46.25
2018-04-14T01:22:56.792Z,47.58
2018-04-14T01:23:30.280Z,42.58
2018-04-14T01:24:03.552Z,43.33
2018-04-14T01:24:36.840Z,42.80
2018-04-14T01:25:10.881Z,32.97
2018-04-14T01:25:44.943Z,37.83
2018-04-14T01:26:18.220Z,31.65
2018-04-14T01:26:51.514Z,37.28
2018-04-14T01:27:24.841Z,39.10
2018-04-14T01:27:58.108Z,40.53
2018-04-14T01:28:31.399Z,41.03
2018-04-14T01:29:04.672Z,40.47
2018-04-14T01:29:37.952Z,48.30
2018-04-14T01:30:11.233Z,41.63
2018-04-14T01:30:44.515Z,36.92
2018-04-14T01:31:17.792Z,35.72
2018-04-14T01:31:51.076Z,35.30
2018-04-14T01:32:24.360Z,32.90
2018-04-14T01:32:57.623Z,32.08
2018-04-14T01:33:31.664Z,34.10
2018-04-14T01:34:04.968Z,36.75
2018-04-14T01:34:38.254Z,39.67
2018-04-14T01:35:11.837Z,40.80
2018-04-14T01:35:45.111Z,37.30
2018-04-14T01:36:18.385Z,39.13
2018-04-14T01:36:51.661Z,35.92
2018-04-14T01:37:25.709Z,39.83
2018-04-14T01:37:59.748Z,38.00
2018-04-14T01:38:33.023Z,39.45
2018-04-14T01:39:06.321Z,44.08
2018-04-14T01:39:39.597Z,40.15
2018-04-14T01:40:12.876Z,39.90
2018-04-14T01:40:46.141Z,33.60
2018-04-14T01:41:19.403Z,34.03
2018-04-14T01:41:52.688Z,33.25
2018-04-14T01:42:25.956Z,35.42
2018-04-14T01:42:59.245Z,40.30
2018-04-14T01:43:32.540Z,36.22
2018-04-14T01:44:05.833Z,36.90
2018-04-14T01:44:39.110Z,40.45
2018-04-14T01:45:12.472Z,45.88
2018-04-14T01:45:45.740Z,43.55
2018-04-14T01:46:19.027Z,41.03
2018-04-14T01:46:52.294Z,40.47
2018-04-14T01:47:25.574Z,35.55
2018-04-14T01:47:59.620Z,37.25
2018-04-14T01:48:32.892Z,37.08
2018-04-14T01:49:06.177Z,38.97
2018-04-14T01:49:39.485Z,40.53
2018-04-14T01:50:12.763Z,36.08
2018-04-14T01:50:46.024Z,40.33
2018-04-14T01:51:19.292Z,38.42
2018-04-14T01:51:52.577Z,45.25
2018-04-14T01:52:25.847Z,46.30
2018-04-14T01:52:59.117Z,45.67
2018-04-14T01:53:32.392Z,42.95
2018-04-14T01:54:05.679Z,38.45
2018-04-14T01:54:38.957Z,36.55
2018-04-14T01:55:12.223Z,35.95
2018-04-14T01:55:45.516Z,34.58
2018-04-14T01:56:18.790Z,36.65
2018-04-14T01:56:52.064Z,38.22
2018-04-14T01:57:25.337Z,44.13
2018-04-14T01:57:58.612Z,42.92
2018-04-14T01:58:32.648Z,43.03
2018-04-14T01:59:05.925Z,43.63
2018-04-14T01:59:39.196Z,45.70
2018-04-14T02:00:12.489Z,44.97
2018-04-14T02:00:45.768Z,43.42
2018-04-14T02:01:19.063Z,42.17
2018-04-14T02:01:52.336Z,42.17
2018-04-14T02:02:25.637Z,48.30
2018-04-14T02:02:58.916Z,40.25
2018-04-14T02:03:32.198Z,38.13
2018-04-14T02:04:05.481Z,33.10
2018-04-14T02:04:38.772Z,37.78
2018-04-14T02:05:12.037Z,37.72
2018-04-14T02:05:45.318Z,37.42
2018-04-14T02:06:18.583Z,32.45
2018-04-14T02:06:51.936Z,35.55
2018-04-14T02:07:25.208Z,32.95
2018-04-14T02:07:58.488Z,37.75
2018-04-14T02:08:31.757Z,41.08
2018-04-14T02:09:05.038Z,42.60
2018-04-14T02:09:39.348Z,43.05
2018-04-14T02:10:12.632Z,39.55
2018-04-14T02:10:45.911Z,39.58
2018-04-14T02:11:19.191Z,40.72
2018-04-14T02:11:52.464Z,43.10
2018-04-14T02:12:25.732Z,41.55
2018-04-14T02:12:59.781Z,43.03
2018-04-14T02:13:33.057Z,36.08
2018-04-14T02:14:06.336Z,40.92
2018-04-14T02:14:39.637Z,38.05
2018-04-14T02:15:13.230Z,40.45
2018-04-14T02:15:46.489Z,43.72
2018-04-14T02:16:19.772Z,42.30
2018-04-14T02:16:53.035Z,42.10
2018-04-14T02:17:26.309Z,43.47
2018-04-14T02:17:59.572Z,41.47
2018-04-14T02:18:32.862Z,47.95
2018-04-14T02:19:06.134Z,48.20
2018-04-14T02:19:39.412Z,48.20
2018-04-14T02:20:12.709Z,46.55
2018-04-14T02:20:45.983Z,48.20
2018-04-14T02:21:19.261Z,44.60
2018-04-14T02:21:52.536Z,44.13
2018-04-14T02:22:26.064Z,39.92
2018-04-14T02:22:59.435Z,43.53
2018-04-14T02:23:32.701Z,43.28
2018-04-14T02:24:05.991Z,43.80
2018-04-14T02:24:39.265Z,45.58
2018-04-14T02:25:12.555Z,52.08
2018-04-14T02:25:45.833Z,42.95
2018-04-14T02:26:19.107Z,41.90
2018-04-14T02:26:52.391Z,44.60
2018-04-14T02:27:25.661Z,41.13
2018-04-14T02:27:58.933Z,43.05
2018-04-14T02:28:32.188Z,39.75
2018-04-14T02:29:06.244Z,44.22
2018-04-14T02:29:39.512Z,46.75
2018-04-14T02:30:12.828Z,48.47
2018-04-14T02:30:46.114Z,45.83
2018-04-14T02:31:19.387Z,50.58
2018-04-14T02:31:52.664Z,50.97
2018-04-14T02:32:26.161Z,47.72
2018-04-14T02:32:59.437Z,42.10
2018-04-14T02:33:32.708Z,43.63
2018-04-14T02:34:05.980Z,45.72
2018-04-14T02:34:39.244Z,47.15
2018-04-14T02:35:12.515Z,47.00
2018-04-14T02:35:45.831Z,45.63
2018-04-14T02:36:19.112Z,52.13
2018-04-14T02:36:52.388Z,48.00
2018-04-14T02:37:25.651Z,46.28
2018-04-14T02:37:59.701Z,46.47
2018-04-14T02:38:32.968Z,51.95
2018-04-14T02:39:06.285Z,53.10
2018-04-14T02:39:39.577Z,53.90
2018-04-14T02:40:12.845Z,45.75
2018-04-14T02:40:46.884Z,48.53
2018-04-14T02:41:20.191Z,52.78
2018-04-14T02:41:54.240Z,50.88
2018-04-14T02:42:27.509Z,49.25
2018-04-14T02:43:00.790Z,44.78
2018-04-14T02:43:34.069Z,46.33
2018-04-14T02:44:07.354Z,43.33
2018-04-14T02:44:40.633Z,45.80
2018-04-14T02:45:13.910Z,46.35
2018-04-14T02:45:47.188Z,50.28
2018-04-14T02:46:20.464Z,51.03
2018-04-14T02:46:53.777Z,49.75
2018-04-14T02:47:27.043Z,50.00
2018-04-14T02:48:00.320Z,53.75
2018-04-14T02:48:34.342Z,48.50
2018-04-14T02:49:07.637Z,44.10
2018-04-14T02:49:40.916Z,47.00
2018-04-14T02:50:14.193Z,42.47
2018-04-14T02:50:47.482Z,45.17
2018-04-14T02:51:21.537Z,45.40
2018-04-14T02:51:54.811Z,43.78
2018-04-14T02:52:28.075Z,41.95
2018-04-14T02:53:01.350Z,44.92
2018-04-14T02:53:34.633Z,46.37
2018-04-14T02:54:07.918Z,46.20
2018-04-14T02:54:41.193Z,44.72
2018-04-14T02:55:14.470Z,44.25
2018-04-14T02:55:47.742Z,42.47
2018-04-14T02:56:21.028Z,43.40
2018-04-14T02:56:54.312Z,45.80
2018-04-14T02:57:27.585Z,47.53
2018-04-14T02:58:00.852Z,44.92
2018-04-14T02:58:34.878Z,48.10
2018-04-14T02:59:08.152Z,48.00
2018-04-14T02:59:41.417Z,43.33
2018-04-14T03:00:15.466Z,45.35
2018-04-14T03:00:48.738Z,51.97
2018-04-14T03:01:22.015Z,43.13
2018-04-14T03:01:55.312Z,48.90
2018-04-14T03:02:28.594Z,46.72
2018-04-14T03:03:01.881Z,51.65
2018-04-14T03:03:35.164Z,49.90
2018-04-14T03:04:08.442Z,46.15
2018-04-14T03:04:41.721Z,45.10
2018-04-14T03:05:14.994Z,44.03
2018-04-14T03:05:48.264Z,43.13
2018-04-14T03:06:21.552Z,45.22
2018-04-14T03:06:54.850Z,48.67
2018-04-14T03:07:28.121Z,46.78
2018-04-14T03:08:01.400Z,46.60
2018-04-14T03:08:34.676Z,49.38
2018-04-14T03:09:08.010Z,51.05
2018-04-14T03:09:41.221Z,50.88
2018-04-14T03:10:14.529Z,51.45
2018-04-14T03:10:47.793Z,48.53
2018-04-14T03:11:21.068Z,45.88
2018-04-14T03:11:54.408Z,48.42
2018-04-14T03:12:27.689Z,48.67
2018-04-14T03:13:00.985Z,56.83
2018-04-14T03:13:34.261Z,49.65
2018-04-14T03:14:07.536Z,49.60
2018-04-14T03:14:40.802Z,57.10
2018-04-14T03:15:14.079Z,49.83
2018-04-14T03:15:48.107Z,51.37
2018-04-14T03:16:21.400Z,53.13
2018-04-14T03:16:54.672Z,44.63
2018-04-14T03:17:27.957Z,50.22
2018-04-14T03:18:01.223Z,52.88
2018-04-14T03:18:34.512Z,48.13
2018-04-14T03:19:08.548Z,48.72
2018-04-14T03:19:41.828Z,51.30
2018-04-14T03:20:15.117Z,47.35
2018-04-14T03:20:49.153Z,47.08
2018-04-14T03:21:22.428Z,47.60
2018-04-14T03:21:55.696Z,49.53
2018-04-14T03:22:28.984Z,50.47
2018-04-14T03:23:02.269Z,48.65
2018-04-14T03:23:35.538Z,49.65
2018-04-14T03:24:08.801Z,53.47
2018-04-14T03:24:42.845Z,48.08
2018-04-14T03:25:16.108Z,47.88
2018-04-14T03:25:50.232Z,46.65
2018-04-14T03:26:24.274Z,42.10
2018-04-14T03:26:57.553Z,46.75
2018-04-14T03:27:31.701Z,45.92
2018-04-14T03:28:04.968Z,49.70
2018-04-14T03:28:39.012Z,45.08
2018-04-14T03:29:12.290Z,45.97
2018-04-14T03:29:45.576Z,52.20
2018-04-14T03:30:18.853Z,49.33
2018-04-14T03:30:52.159Z,50.28
2018-04-14T03:31:25.436Z,49.33
2018-04-14T03:31:59.465Z,53.75
2018-04-14T03:32:32.780Z,52.75
2018-04-14T03:33:06.067Z,49.45
2018-04-14T03:33:39.346Z,49.90
2018-04-14T03:34:12.627Z,55.45
2018-04-14T03:34:45.910Z,54.90
2018-04-14T03:35:19.209Z,53.08
2018-04-14T03:35:52.499Z,55.25
2018-04-14T03:36:26.544Z,53.60
2018-04-14T03:36:59.908Z,56.10
2018-04-14T03:37:33.212Z,50.17
2018-04-14T03:38:06.481Z,51.22
2018-04-14T03:38:39.758Z,48.40
2018-04-14T03:39:13.038Z,54.28
2018-04-14T03:39:46.305Z,51.22
2018-04-14T03:40:19.584Z,56.50
2018-04-14T03:40:52.857Z,47.65
2018-04-14T03:41:26.131Z,51.53
2018-04-14T03:41:59.417Z,57.00
2018-04-14T03:42:33.480Z,49.47
2018-04-14T03:43:06.774Z,56.60
2018-04-14T03:43:40.036Z,57.45
2018-04-14T03:44:13.317Z,60.92
2018-04-14T03:44:46.592Z,57.65
2018-04-14T03:45:19.890Z,50.35
2018-04-14T03:45:53.168Z,52.35
2018-04-14T03:46:26.449Z,52.42
2018-04-14T03:46:59.728Z,53.15
2018-04-14T03:47:32.995Z,52.20
2018-04-14T03:48:06.298Z,54.45
2018-04-14T03:48:40.348Z,60.08
2018-04-14T03:49:13.633Z,48.83
2018-04-14T03:49:47.672Z,54.40
2018-04-14T03:50:21.712Z,51.60
2018-04-14T03:50:54.980Z,53.33
2018-04-14T03:51:28.259Z,50.67
2018-04-14T03:52:01.540Z,53.30
2018-04-14T03:52:34.818Z,51.75
2018-04-14T03:53:08.100Z,50.70
2018-04-14T03:53:41.385Z,46.97
2018-04-14T03:54:14.659Z,49.13
2018-04-14T03:54:47.920Z,49.35
2018-04-14T03:55:21.964Z,52.42
2018-04-14T03:55:55.239Z,51.45
2018-04-14T03:56:28.508Z,49.92
2018-04-14T03:57:01.791Z,52.22
2018-04-14T03:57:35.065Z,50.33
2018-04-14T03:58:08.357Z,52.03
2018-04-14T03:58:41.636Z,51.28
2018-04-14T03:59:14.909Z,52.15
2018-04-14T03:59:48.181Z,50.10
2018-04-14T04:00:21.449Z,50.95
2018-04-14T04:00:54.733Z,50.97
2018-04-14T04:01:27.996Z,51.13
2018-04-14T04:02:02.034Z,48.92
2018-04-14T04:02:35.318Z,50.53
2018-04-14T04:03:08.580Z,47.75
2018-04-14T04:03:41.877Z,51.55
2018-04-14T04:04:15.155Z,48.70
2018-04-14T04:04:48.429Z,50.08
2018-04-14T04:05:21.703Z,49.67
2018-04-14T04:05:54.992Z,52.65
2018-04-14T04:06:28.256Z,52.75
2018-04-14T04:07:01.534Z,47.47
2018-04-14T04:07:34.809Z,48.80
2018-04-14T04:08:08.096Z,48.60
2018-04-14T04:08:41.359Z,54.08
2018-04-14T04:09:14.644Z,50.53
2018-04-14T04:09:47.925Z,48.15
2018-04-14T04:10:21.978Z,50.00
2018-04-14T04:10:55.265Z,53.85
2018-04-14T04:11:28.547Z,44.90
2018-04-14T04:12:01.831Z,49.67
2018-04-14T04:12:35.108Z,46.28
2018-04-14T04:13:08.388Z,44.20
2018-04-14T04:13:41.668Z,47.60
2018-04-14T04:14:14.967Z,46.85
2018-04-14T04:14:48.276Z,47.58
2018-04-14T04:15:21.547Z,48.35
2018-04-14T04:15:55.581Z,48.95
2018-04-14T04:16:29.627Z,47.38
2018-04-14T04:17:03.663Z,48.58
2018-04-14T04:17:36.960Z,53.70
2018-04-14T04:18:10.264Z,49.72
2018-04-14T04:18:55.294Z,47.95
2018-04-14T04:19:40.583Z,44.00
2018-04-14T04:20:22.604Z,44.50
2018-04-14T04:21:07.828Z,43.65
2018-04-14T04:21:54.506Z,42.92
2018-04-14T04:22:39.700Z,45.40
2018-04-14T04:23:25.671Z,42.22
2018-04-14T04:24:10.676Z,42.60
2018-04-14T04:24:55.792Z,40.92
2018-04-14T04:25:39.749Z,41.37
2018-04-14T04:26:13.031Z,45.12
2018-04-14T04:26:46.292Z,43.13
2018-04-14T04:27:20.357Z,45.00
2018-04-14T04:27:53.629Z,43.33
2018-04-14T04:28:26.916Z,44.40
2018-04-14T04:29:00.198Z,48.03
2018-04-14T04:29:33.493Z,50.25
2018-04-14T04:30:06.771Z,50.65
2018-04-14T04:30:40.038Z,47.38
2018-04-14T04:31:13.321Z,53.75
2018-04-14T04:31:46.720Z,49.65
2018-04-14T04:32:20.757Z,47.88
2018-04-14T04:32:54.039Z,49.13
2018-04-14T04:33:27.326Z,48.65
2018-04-14T04:34:00.593Z,49.03
2018-04-14T04:34:33.866Z,48.87
2018-04-14T04:35:07.158Z,45.67
2018-04-14T04:35:40.437Z,54.05
2018-04-14T04:36:13.717Z,53.97
2018-04-14T04:36:47.001Z,58.67
2018-04-14T04:37:20.280Z,50.15
2018-04-14T04:37:53.552Z,52.83
2018-04-14T04:38:26.824Z,51.00
2018-04-14T04:39:00.105Z,51.03
2018-04-14T04:39:33.388Z,51.37
2018-04-14T04:40:07.439Z,54.58
2018-04-14T04:40:40.712Z,51.97
2018-04-14T04:41:13.984Z,53.17
2018-04-14T04:41:47.280Z,51.08
2018-04-14T04:42:20.539Z,44.95
2018-04-14T04:42:53.813Z,51.90
2018-04-14T04:43:27.090Z,46.33
2018-04-14T04:44:00.368Z,53.15
2018-04-14T04:44:33.644Z,51.72
2018-04-14T04:45:06.919Z,50.47
2018-04-14T04:45:40.199Z,48.28
2018-04-14T04:46:13.476Z,48.45
2018-04-14T04:46:46.767Z,46.85
2018-04-14T04:47:20.041Z,48.47
2018-04-14T04:47:53.317Z,49.13
2018-04-14T04:48:26.590Z,48.10
2018-04-14T04:48:59.893Z,47.80
2018-04-14T04:49:33.130Z,47.60
2018-04-14T04:50:07.168Z,47.88
2018-04-14T04:50:40.449Z,45.33
2018-04-14T04:51:13.727Z,45.05
2018-04-14T04:51:47.016Z,51.53
2018-04-14T04:52:20.300Z,46.05
2018-04-14T04:52:53.569Z,45.97
2018-04-14T04:53:26.847Z,44.10
2018-04-14T04:54:00.119Z,44.88
2018-04-14T04:54:33.391Z,42.80
2018-04-14T04:55:06.669Z,42.70
2018-04-14T04:55:39.943Z,47.83
2018-04-14T04:56:13.228Z,45.17
2018-04-14T04:56:46.502Z,46.65
2018-04-14T04:57:19.776Z,47.80
2018-04-14T04:57:53.065Z,49.05
2018-04-14T04:58:26.341Z,48.20
2018-04-14T04:58:59.608Z,43.50
2018-04-14T04:59:33.644Z,45.63
2018-04-14T05:00:06.924Z,45.05
2018-04-14T05:00:40.210Z,40.67
2018-04-14T05:01:13.492Z,46.05
2018-04-14T05:01:46.780Z,50.83
2018-04-14T05:02:20.052Z,46.88
2018-04-14T05:02:53.320Z,49.90
2018-04-14T05:03:26.589Z,46.08
2018-04-14T05:03:59.865Z,45.17
2018-04-14T05:04:33.130Z,39.67
2018-04-14T05:05:07.165Z,41.97
2018-04-14T05:05:40.458Z,49.08
2018-04-14T05:06:13.725Z,42.72
2018-04-14T05:06:47.029Z,47.42
2018-04-14T05:07:20.312Z,45.08
2018-04-14T05:07:53.597Z,43.53
2018-04-14T05:08:26.868Z,43.45
2018-04-14T05:09:00.148Z,41.95
2018-04-14T05:09:33.433Z,41.90
2018-04-14T05:10:06.702Z,43.45
2018-04-14T05:10:40.003Z,48.00
2018-04-14T05:11:13.304Z,42.90
2018-04-14T05:11:46.589Z,43.80
2018-04-14T05:12:20.620Z,42.50
2018-04-14T05:12:53.893Z,43.05
2018-04-14T05:13:27.956Z,46.40
2018-04-14T05:14:01.223Z,41.13
2018-04-14T05:14:34.551Z,44.15
2018-04-14T05:15:07.856Z,49.63
2018-04-14T05:15:41.141Z,41.53
2018-04-14T05:16:14.411Z,41.42
2018-04-14T05:16:47.700Z,45.33
2018-04-14T05:17:20.969Z,41.03
2018-04-14T05:17:54.246Z,42.42
2018-04-14T05:18:27.520Z,42.65
2018-04-14T05:19:00.815Z,42.15
2018-04-14T05:19:34.098Z,48.00
2018-04-14T05:20:07.366Z,40.78
2018-04-14T05:20:40.669Z,38.38
2018-04-14T05:21:13.937Z,43.70
2018-04-14T05:21:47.189Z,37.58
2018-04-14T05:22:20.469Z,40.67
2018-04-14T05:22:53.735Z,41.00
2018-04-14T05:23:27.028Z,41.37
2018-04-14T05:24:00.318Z,40.28
2018-04-14T05:24:33.584Z,38.67
2018-04-14T05:25:07.113Z,41.30
2018-04-14T05:25:40.404Z,41.80
2018-04-14T05:26:13.717Z,42.97
2018-04-14T05:26:47.756Z,43.10
2018-04-14T05:27:21.041Z,40.80
2018-04-14T05:27:54.330Z,41.88
2018-04-14T05:28:27.924Z,45.08
2018-04-14T05:29:01.208Z,39.92
2018-04-14T05:29:34.478Z,43.33
2018-04-14T05:30:07.756Z,44.88
2018-04-14T05:30:41.045Z,43.38
2018-04-14T05:31:14.321Z,48.35
2018-04-14T05:31:47.593Z,41.95
2018-04-14T05:32:20.892Z,47.65
2018-04-14T05:32:54.363Z,42.83
2018-04-14T05:33:27.649Z,44.58
2018-04-14T05:34:01.688Z,45.10
2018-04-14T05:34:35.721Z,40.40
2018-04-14T05:35:09.241Z,43.25
2018-04-14T05:35:42.473Z,42.22
2018-04-14T05:36:15.751Z,43.08
2018-04-14T05:36:49.027Z,44.20
2018-04-14T05:37:22.319Z,40.70
2018-04-14T05:37:55.600Z,44.70
2018-04-14T05:38:28.889Z,43.80
2018-04-14T05:39:02.156Z,42.05
2018-04-14T05:39:35.441Z,43.87
2018-04-14T05:40:08.702Z,41.13
2018-04-14T05:40:41.979Z,40.47
2018-04-14T05:41:15.251Z,41.78
2018-04-14T05:41:49.292Z,41.72
2018-04-14T05:42:22.584Z,43.58
2018-04-14T05:42:55.882Z,42.67
2018-04-14T05:43:29.161Z,43.72
2018-04-14T05:44:02.440Z,39.28
2018-04-14T05:44:35.729Z,41.70
2018-04-14T05:45:09.024Z,42.17
2018-04-14T05:45:42.292Z,43.20
2018-04-14T05:46:15.563Z,41.30
2018-04-14T05:46:48.852Z,41.75
2018-04-14T05:47:22.147Z,40.65
2018-04-14T05:47:56.214Z,38.88
2018-04-14T05:48:29.475Z,42.38
2018-04-14T05:49:02.756Z,43.85
2018-04-14T05:49:36.040Z,39.92
2018-04-14T05:50:09.316Z,38.90
2018-04-14T05:50:42.580Z,45.33
2018-04-14T05:51:15.873Z,37.08
2018-04-14T05:51:49.149Z,35.95
2018-04-14T05:52:22.464Z,40.12
2018-04-14T05:52:55.716Z,38.22
2018-04-14T05:53:29.004Z,40.80
2018-04-14T05:54:02.292Z,39.35
2018-04-14T05:54:35.574Z,39.50
2018-04-14T05:55:10.359Z,37.58
2018-04-14T05:55:43.649Z,41.90
2018-04-14T05:56:16.924Z,44.63
2018-04-14T05:56:50.189Z,44.05
2018-04-14T05:57:23.465Z,40.85
2018-04-14T05:57:56.760Z,45.38
2018-04-14T05:58:30.032Z,42.05
2018-04-14T05:59:03.320Z,43.15
2018-04-14T05:59:36.594Z,43.17
2018-04-14T06:00:09.885Z,46.08
2018-04-14T06:00:43.142Z,38.90
2018-04-14T06:01:16.409Z,38.53
2018-04-14T06:01:50.444Z,40.85
2018-04-14T06:02:23.732Z,39.20
2018-04-14T06:02:57.026Z,41.65
2018-04-14T06:03:30.288Z,38.33
2018-04-14T06:04:03.648Z,35.72
2018-04-14T06:04:36.917Z,36.83
2018-04-14T06:05:10.192Z,38.85
2018-04-14T06:05:43.474Z,38.28
2018-04-14T06:06:16.767Z,33.75
2018-04-14T06:06:50.041Z,36.22
2018-04-14T06:07:23.320Z,35.08
2018-04-14T06:07:56.624Z,34.75
2018-04-14T06:08:29.929Z,36.95
2018-04-14T06:09:03.262Z,37.95
2018-04-14T06:09:36.512Z,36.83
2018-04-14T06:10:09.792Z,34.47
2018-04-14T06:10:43.080Z,37.80
2018-04-14T06:11:16.366Z,34.10
2018-04-14T06:11:50.405Z,35.53
2018-04-14T06:12:23.684Z,35.45
2018-04-14T06:12:56.968Z,32.17
2018-04-14T06:13:30.256Z,34.95
2018-04-14T06:14:03.532Z,34.42
2018-04-14T06:14:36.817Z,37.63
2018-04-14T06:15:10.196Z,36.63
2018-04-14T06:15:43.470Z,34.10
2018-04-14T06:16:16.740Z,36.35
2018-04-14T06:16:50.032Z,37.30
2018-04-14T06:17:23.312Z,38.92
2018-04-14T06:17:57.265Z,34.03
2018-04-14T06:18:31.324Z,36.90
2018-04-14T06:19:04.603Z,36.17
2018-04-14T06:19:37.921Z,37.58
2018-04-14T06:20:11.228Z,33.83
2018-04-14T06:20:44.545Z,34.35
2018-04-14T06:21:17.862Z,35.15
2018-04-14T06:21:51.163Z,35.53
2018-04-14T06:22:25.211Z,32.47
2018-04-14T06:22:58.474Z,38.03
2018-04-14T06:23:31.765Z,36.72
2018-04-14T06:24:05.055Z,35.40
2018-04-14T06:24:38.319Z,36.72
2018-04-14T06:25:11.612Z,32.97
2018-04-14T06:25:44.889Z,34.15
2018-04-14T06:26:18.181Z,33.35
2018-04-14T06:26:51.452Z,34.53
2018-04-14T06:27:24.741Z,36.42
2018-04-14T06:27:58.031Z,37.78
2018-04-14T06:28:31.301Z,36.70
2018-04-14T06:29:04.596Z,40.17
2018-04-14T06:29:38.648Z,36.95
2018-04-14T06:30:11.930Z,38.40
2018-04-14T06:30:45.204Z,41.42
2018-04-14T06:31:18.477Z,37.00
2018-04-14T06:31:51.755Z,35.00
2018-04-14T06:32:25.017Z,36.47
2018-04-14T06:32:58.292Z,38.15
2018-04-14T06:33:31.564Z,39.80
2018-04-14T06:34:04.862Z,36.03
2018-04-14T06:34:38.141Z,36.20
2018-04-14T06:35:11.412Z,39.55
2018-04-14T06:35:44.706Z,38.47
2018-04-14T06:36:17.964Z,37.05
2018-04-14T06:36:51.236Z,37.15
2018-04-14T06:37:24.513Z,43.50
2018-04-14T06:37:57.808Z,40.45
2018-04-14T06:38:31.060Z,41.40
2018-04-14T06:39:04.373Z,39.28
2018-04-14T06:39:38.413Z,43.38
2018-04-14T06:40:11.680Z,44.50
2018-04-14T06:40:44.944Z,38.72
2018-04-14T06:41:18.213Z,41.33
2018-04-14T06:41:52.257Z,44.92
2018-04-14T06:42:25.527Z,40.60
2018-04-14T06:42:58.801Z,44.72
2018-04-14T06:43:32.072Z,40.90
2018-04-14T06:44:05.398Z,42.35
2018-04-14T06:44:38.644Z,39.63
2018-04-14T06:45:11.913Z,42.72
2018-04-14T06:45:45.194Z,40.97
2018-04-14T06:46:18.478Z,40.17
2018-04-14T06:46:51.771Z,38.47
2018-04-14T06:47:25.033Z,38.42
2018-04-14T06:47:58.327Z,38.75
2018-04-14T06:48:31.592Z,38.45
2018-04-14T06:49:04.903Z,39.67
2018-04-14T06:49:38.818Z,35.47
2018-04-14T06:50:12.130Z,36.25
2018-04-14T06:50:45.348Z,36.78
2018-04-14T06:51:18.627Z,35.28
2018-04-14T06:51:51.906Z,37.70
2018-04-14T06:52:25.169Z,40.20
2018-04-14T06:52:59.240Z,36.05
2018-04-14T06:53:33.281Z,39.30
2018-04-14T06:54:06.544Z,35.60
2018-04-14T06:54:39.817Z,37.63
2018-04-14T06:55:13.089Z,36.88
2018-04-14T06:55:47.153Z,36.97
2018-04-14T06:56:20.434Z,33.58
2018-04-14T06:56:53.699Z,36.40
2018-04-14T06:57:26.968Z,36.25
2018-04-14T06:58:01.004Z,39.13
2018-04-14T06:58:34.288Z,34.63
2018-04-14T06:59:07.593Z,36.00
2018-04-14T06:59:40.873Z,33.75
2018-04-14T07:00:14.159Z,35.67
2018-04-14T07:00:47.428Z,36.30
2018-04-14T07:01:20.709Z,36.45
2018-04-14T07:01:53.998Z,34.35
2018-04-14T07:02:27.278Z,30.17
2018-04-14T07:03:00.558Z,34.78
2018-04-14T07:03:33.861Z,34.55
2018-04-14T07:04:07.137Z,34.85
2018-04-14T07:04:40.634Z,31.17
2018-04-14T07:05:13.900Z,33.30
2018-04-14T07:05:47.285Z,33.97
2018-04-14T07:06:20.610Z,34.03
2018-04-14T07:06:53.956Z,33.83
2018-04-14T07:07:27.629Z,34.00
2018-04-14T07:08:00.916Z,34.10
2018-04-14T07:08:34.182Z,33.65
2018-04-14T07:09:07.445Z,37.10
2018-04-14T07:09:40.731Z,36.65
2018-04-14T07:10:14.037Z,35.75
2018-04-14T07:10:47.293Z,36.05
2018-04-14T07:11:20.562Z,37.72
2018-04-14T07:11:53.850Z,36.92